PRIVATE WETTERSTATION BILLIGHEIM-ALLFELD                       ZURCK
Wetterdaten: Montag, 25.09.2017
Datum Zeit Temp. A. Temp. A. min Temp. A. max Feuchte A. Luftdruck Regen Wind Richtung Richtung Sonnenschein ET Solar Taupunkt Windchill Windben Empfang
25.09.2017 00:00 9,7 C 9,7 C 9,8 C 90 % 1021,0 hPa 0,0 l/m 0,0 km/h (0 Bft) N 0 0 min 0,000 mm 0 W/m 8,1 C 9,7 C 0,0 km/h (0 Bft) 100 %
25.09.2017 00:10 9,5 C 9,5 C 9,7 C 89 % 1021,0 hPa 0,0 l/m 0,0 km/h (0 Bft) N 0 0 min 0,000 mm 0 W/m 7,8 C 9,5 C 0,0 km/h (0 Bft) 100 %
25.09.2017 00:20 9,3 C 9,3 C 9,5 C 90 % 1021,0 hPa 0,0 l/m 0,0 km/h (0 Bft) N 0 0 min 0,000 mm 0 W/m 7,7 C 9,3 C 0,0 km/h (0 Bft) 100 %
25.09.2017 00:30 9,2 C 9,2 C 9,3 C 89 % 1020,9 hPa 0,0 l/m 0,0 km/h (0 Bft) N 0 0 min 0,000 mm 0 W/m 7,5 C 9,2 C 0,0 km/h (0 Bft) 100 %
25.09.2017 00:40 9,1 C 9,1 C 9,2 C 90 % 1020,8 hPa 0,0 l/m 0,0 km/h (0 Bft) N 360 0 min 0,000 mm 0 W/m 7,5 C 9,1 C 1,6 km/h (1 Bft) 100 %
25.09.2017 00:50 9,0 C 9,0 C 9,1 C 90 % 1020,8 hPa 0,0 l/m 0,0 km/h (0 Bft) N 0 0 min 0,000 mm 0 W/m 7,4 C 9,0 C 0,0 km/h (0 Bft) 100 %
25.09.2017 01:00 8,9 C 8,9 C 9,0 C 90 % 1020,8 hPa 0,0 l/m 0,0 km/h (0 Bft) N 0 0 min 0,000 mm 0 W/m 7,4 C 8,9 C 0,0 km/h (0 Bft) 100 %
25.09.2017 01:10 8,9 C 8,9 C 8,9 C 90 % 1020,7 hPa 0,0 l/m 0,0 km/h (0 Bft) N 0 0 min 0,000 mm 0 W/m 7,4 C 8,9 C 0,0 km/h (0 Bft) 100 %
25.09.2017 01:20 8,9 C 8,9 C 8,9 C 90 % 1020,7 hPa 0,0 l/m 0,0 km/h (0 Bft) N 0 0 min 0,000 mm 0 W/m 7,4 C 8,9 C 0,0 km/h (0 Bft) 100 %
25.09.2017 01:30 8,8 C 8,8 C 8,9 C 90 % 1020,7 hPa 0,0 l/m 1,6 km/h (1 Bft) N 360 0 min 0,000 mm 0 W/m 7,3 C 8,8 C 4,8 km/h (1 Bft) 100 %
25.09.2017 01:40 8,8 C 8,8 C 8,9 C 90 % 1020,6 hPa 0,0 l/m 1,6 km/h (1 Bft) N 360 0 min 0,000 mm 0 W/m 7,3 C 8,8 C 4,8 km/h (1 Bft) 100 %
25.09.2017 01:50 8,7 C 8,7 C 8,8 C 90 % 1020,6 hPa 0,0 l/m 1,6 km/h (1 Bft) N 360 0 min 0,000 mm 0 W/m 7,2 C 8,7 C 3,2 km/h (1 Bft) 100 %
25.09.2017 02:00 8,6 C 8,6 C 8,7 C 90 % 1020,6 hPa 0,0 l/m 1,6 km/h (1 Bft) N 360 0 min 0,000 mm 0 W/m 7,1 C 8,6 C 3,2 km/h (1 Bft) 100 %
25.09.2017 02:10 8,6 C 8,6 C 8,6 C 90 % 1020,6 hPa 0,0 l/m 1,6 km/h (1 Bft) N 360 0 min 0,000 mm 0 W/m 7,1 C 8,6 C 3,2 km/h (1 Bft) 100 %
25.09.2017 02:20 8,5 C 8,5 C 8,6 C 90 % 1020,5 hPa 0,0 l/m 1,6 km/h (1 Bft) N 360 0 min 0,000 mm 0 W/m 7,0 C 8,5 C 3,2 km/h (1 Bft) 100 %
25.09.2017 02:30 8,4 C 8,4 C 8,5 C 90 % 1020,5 hPa 0,0 l/m 0,0 km/h (0 Bft) N 0 0 min 0,000 mm 0 W/m 6,9 C 8,4 C 0,0 km/h (0 Bft) 100 %
25.09.2017 02:40 8,3 C 8,3 C 8,4 C 90 % 1020,5 hPa 0,0 l/m 3,2 km/h (1 Bft) N 360 0 min 0,000 mm 0 W/m 6,8 C 8,3 C 4,8 km/h (1 Bft) 100 %
25.09.2017 02:50 8,3 C 8,3 C 8,3 C 90 % 1020,4 hPa 0,0 l/m 3,2 km/h (1 Bft) N 360 0 min 0,000 mm 0 W/m 6,8 C 8,3 C 4,8 km/h (1 Bft) 100 %
25.09.2017 03:00 8,3 C 8,3 C 8,3 C 90 % 1020,3 hPa 0,0 l/m 1,6 km/h (1 Bft) N 360 0 min 0,000 mm 0 W/m 6,8 C 8,3 C 4,8 km/h (1 Bft) 100 %
25.09.2017 03:10 8,2 C 8,2 C 8,3 C 90 % 1020,3 hPa 0,0 l/m 1,6 km/h (1 Bft) N 360 0 min 0,000 mm 0 W/m 6,7 C 8,2 C 3,2 km/h (1 Bft) 99 %
25.09.2017 03:20 8,1 C 8,1 C 8,2 C 90 % 1020,3 hPa 0,0 l/m 3,2 km/h (1 Bft) N 360 0 min 0,000 mm 0 W/m 6,6 C 8,1 C 4,8 km/h (1 Bft) 99 %
25.09.2017 03:30 7,9 C 7,9 C 8,1 C 90 % 1020,3 hPa 0,0 l/m 1,6 km/h (1 Bft) N 360 0 min 0,000 mm 0 W/m 6,4 C 7,9 C 3,2 km/h (1 Bft) 97 %
25.09.2017 03:40 7,8 C 7,8 C 7,9 C 90 % 1020,1 hPa 0,0 l/m 3,2 km/h (1 Bft) N 360 0 min 0,000 mm 0 W/m 6,3 C 7,8 C 4,8 km/h (1 Bft) 98 %
25.09.2017 03:50 7,7 C 7,7 C 7,8 C 90 % 1020,0 hPa 0,0 l/m 3,2 km/h (1 Bft) N 360 0 min 0,000 mm 0 W/m 6,2 C 7,7 C 4,8 km/h (1 Bft) 98 %
25.09.2017 04:00 7,7 C 7,7 C 7,7 C 90 % 1019,9 hPa 0,0 l/m 1,6 km/h (1 Bft) N 360 0 min 0,000 mm 0 W/m 6,2 C 7,7 C 4,8 km/h (1 Bft) 97 %
25.09.2017 04:10 7,8 C 7,7 C 7,8 C 90 % 1019,8 hPa 0,0 l/m 1,6 km/h (1 Bft) N 360 0 min 0,000 mm 0 W/m 6,3 C 7,8 C 3,2 km/h (1 Bft) 98 %
25.09.2017 04:20 7,7 C 7,7 C 7,8 C 90 % 1019,8 hPa 0,0 l/m 0,0 km/h (0 Bft) N 0 0 min 0,000 mm 0 W/m 6,2 C 7,7 C 0,0 km/h (0 Bft) 97 %
25.09.2017 04:30 7,7 C 7,7 C 7,7 C 90 % 1019,7 hPa 0,0 l/m 0,0 km/h (0 Bft) N 0 0 min 0,000 mm 0 W/m 6,2 C 7,7 C 0,0 km/h (0 Bft) 98 %
25.09.2017 04:40 7,4 C 7,4 C 7,6 C 90 % 1019,7 hPa 0,0 l/m 0,0 km/h (0 Bft) N 0 0 min 0,000 mm 0 W/m 5,9 C 7,4 C 0,0 km/h (0 Bft) 97 %
25.09.2017 04:50 7,4 C 7,4 C 7,4 C 90 % 1019,7 hPa 0,0 l/m 0,0 km/h (0 Bft) N 360 0 min 0,000 mm 0 W/m 5,9 C 7,4 C 4,8 km/h (1 Bft) 98 %
25.09.2017 05:00 7,5 C 7,4 C 7,5 C 90 % 1019,7 hPa 0,0 l/m 1,6 km/h (1 Bft) N 360 0 min 0,000 mm 0 W/m 6,0 C 7,5 C 4,8 km/h (1 Bft) 98 %
25.09.2017 05:10 7,4 C 7,4 C 7,5 C 90 % 1019,8 hPa 0,0 l/m 0,0 km/h (0 Bft) N 360 0 min 0,000 mm 0 W/m 5,9 C 7,4 C 3,2 km/h (1 Bft) 97 %
25.09.2017 05:20 7,4 C 7,4 C 7,4 C 90 % 1019,6 hPa 0,0 l/m 0,0 km/h (0 Bft) N 0 0 min 0,000 mm 0 W/m 5,9 C 7,4 C 0,0 km/h (0 Bft) 98 %
25.09.2017 05:30 7,3 C 7,3 C 7,4 C 90 % 1019,7 hPa 0,0 l/m 0,0 km/h (0 Bft) N 360 0 min 0,000 mm 0 W/m 5,8 C 7,3 C 1,6 km/h (1 Bft) 97 %
25.09.2017 05:40 7,3 C 7,3 C 7,3 C 90 % 1019,8 hPa 0,0 l/m 0,0 km/h (0 Bft) N 360 0 min 0,000 mm 0 W/m 5,8 C 7,3 C 1,6 km/h (1 Bft) 98 %
25.09.2017 05:50 7,3 C 7,2 C 7,3 C 90 % 1019,9 hPa 0,0 l/m 0,0 km/h (0 Bft) N 0 0 min 0,000 mm 0 W/m 5,8 C 7,3 C 0,0 km/h (0 Bft) 89 %
25.09.2017 06:00 7,3 C 7,3 C 7,3 C 90 % 1019,8 hPa 0,0 l/m 0,0 km/h (0 Bft) N 0 0 min 0,000 mm 0 W/m 5,8 C 7,3 C 0,0 km/h (0 Bft) 97 %
25.09.2017 06:10 7,2 C 7,2 C 7,3 C 90 % 1019,7 hPa 0,0 l/m 0,0 km/h (0 Bft) N 0 0 min 0,000 mm 0 W/m 5,7 C 7,2 C 0,0 km/h (0 Bft) 98 %
25.09.2017 06:20 7,1 C 7,1 C 7,2 C 90 % 1019,8 hPa 0,0 l/m 0,0 km/h (0 Bft) N 0 0 min 0,000 mm 0 W/m 5,6 C 7,1 C 0,0 km/h (0 Bft) 98 %
25.09.2017 06:30 7,0 C 7,0 C 7,1 C 90 % 1019,7 hPa 0,0 l/m 0,0 km/h (0 Bft) N 0 0 min 0,000 mm 0 W/m 5,5 C 7,0 C 0,0 km/h (0 Bft) 98 %
25.09.2017 06:40 6,9 C 6,9 C 7,0 C 90 % 1019,7 hPa 0,0 l/m 0,0 km/h (0 Bft) N 0 0 min 0,000 mm 0 W/m 5,4 C 6,9 C 0,0 km/h (0 Bft) 98 %
25.09.2017 06:50 6,9 C 6,9 C 6,9 C 90 % 1019,7 hPa 0,0 l/m 0,0 km/h (0 Bft) N-NW 337 0 min 0,000 mm 0 W/m 5,4 C 6,9 C 1,6 km/h (1 Bft) 98 %
25.09.2017 07:00 6,8 C 6,8 C 6,9 C 90 % 1019,8 hPa 0,0 l/m 0,0 km/h (0 Bft) N 0 0 min 0,000 mm 0 W/m 5,3 C 6,8 C 0,0 km/h (0 Bft) 98 %
25.09.2017 07:10 6,7 C 6,7 C 6,8 C 90 % 1019,8 hPa 0,0 l/m 0,0 km/h (0 Bft) N 0 0 min 0,000 mm 0 W/m 5,2 C 6,7 C 0,0 km/h (0 Bft) 97 %
25.09.2017 07:20 6,7 C 6,7 C 6,7 C 90 % 1019,9 hPa 0,0 l/m 0,0 km/h (0 Bft) N 0 0 min 0,000 mm 5 W/m 5,2 C 6,7 C 0,0 km/h (0 Bft) 97 %
25.09.2017 07:30 6,7 C 6,7 C 6,7 C 90 % 1019,9 hPa 0,0 l/m 0,0 km/h (0 Bft) N 0 0 min 0,000 mm 9 W/m 5,2 C 6,7 C 0,0 km/h (0 Bft) 97 %
25.09.2017 07:40 6,9 C 6,7 C 6,9 C 91 % 1019,9 hPa 0,0 l/m 0,0 km/h (0 Bft) N-NW 337 0 min 0,000 mm 12 W/m 5,5 C 6,9 C 3,2 km/h (1 Bft) 97 %
25.09.2017 07:50 7,2 C 6,9 C 7,2 C 90 % 1019,9 hPa 0,0 l/m 0,0 km/h (0 Bft) N 360 0 min 0,000 mm 19 W/m 5,7 C 7,2 C 3,2 km/h (1 Bft) 97 %
25.09.2017 08:00 7,3 C 7,2 C 7,3 C 91 % 1020,0 hPa 0,0 l/m 0,0 km/h (0 Bft) N 360 0 min 0,000 mm 25 W/m 5,9 C 7,3 C 1,6 km/h (1 Bft) 98 %
25.09.2017 08:10 7,3 C 7,3 C 7,3 C 91 % 1020,0 hPa 0,0 l/m 0,0 km/h (0 Bft) N 0 0 min 0,000 mm 35 W/m 5,9 C 7,3 C 0,0 km/h (0 Bft) 89 %
25.09.2017 08:20 7,3 C 7,3 C 7,3 C 91 % 1020,0 hPa 0,0 l/m 0,0 km/h (0 Bft) N 0 0 min 0,000 mm 46 W/m 5,9 C 7,3 C 0,0 km/h (0 Bft) 97 %
25.09.2017 08:30 7,5 C 7,3 C 7,5 C 90 % 1019,9 hPa 0,0 l/m 0,0 km/h (0 Bft) N 360 0 min 0,000 mm 47 W/m 6,0 C 7,5 C 1,6 km/h (1 Bft) 98 %
25.09.2017 08:40 7,7 C 7,5 C 7,7 C 91 % 1019,9 hPa 0,0 l/m 0,0 km/h (0 Bft) N 0 0 min 0,000 mm 137 W/m 6,3 C 7,7 C 0,0 km/h (0 Bft) 98 %
25.09.2017 08:50 8,3 C 7,7 C 8,3 C 91 % 1019,9 hPa 0,0 l/m 0,0 km/h (0 Bft) NW 315 10 min 0,000 mm 176 W/m 6,9 C 8,3 C 6,4 km/h (2 Bft) 98 %
25.09.2017 09:00 9,1 C 8,3 C 9,1 C 91 % 1019,9 hPa 0,0 l/m 0,0 km/h (0 Bft) N 0 10 min 0,051 mm 206 W/m 7,7 C 9,1 C 0,0 km/h (0 Bft) 97 %
25.09.2017 09:10 9,8 C 9,1 C 9,8 C 91 % 1020,0 hPa 0,0 l/m 1,6 km/h (1 Bft) NW 315 10 min 0,000 mm 232 W/m 8,4 C 9,8 C 6,4 km/h (2 Bft) 98 %
25.09.2017 09:20 10,3 C 9,8 C 10,3 C 91 % 1020,0 hPa 0,0 l/m 0,0 km/h (0 Bft) N 0 10 min 0,000 mm 255 W/m 8,9 C 10,3 C 0,0 km/h (0 Bft) 98 %
25.09.2017 09:30 10,6 C 10,3 C 10,6 C 91 % 1020,1 hPa 0,0 l/m 0,0 km/h (0 Bft) N 0 10 min 0,000 mm 281 W/m 9,2 C 10,6 C 0,0 km/h (0 Bft) 98 %
25.09.2017 09:40 10,7 C 10,6 C 10,7 C 94 % 1020,0 hPa 0,0 l/m 0,0 km/h (0 Bft) N 0 10 min 0,000 mm 313 W/m 9,8 C 10,7 C 0,0 km/h (0 Bft) 98 %
25.09.2017 09:50 11,1 C 10,7 C 11,1 C 91 % 1019,8 hPa 0,0 l/m 0,0 km/h (0 Bft) NW 315 10 min 0,000 mm 345 W/m 9,7 C 11,1 C 1,6 km/h (1 Bft) 98 %
25.09.2017 10:00 11,3 C 11,1 C 11,3 C 90 % 1019,9 hPa 0,0 l/m 0,0 km/h (0 Bft) N 0 10 min 0,127 mm 366 W/m 9,7 C 11,3 C 0,0 km/h (0 Bft) 98 %
25.09.2017 10:10 11,4 C 11,3 C 11,4 C 90 % 1019,8 hPa 0,0 l/m 0,0 km/h (0 Bft) N 0 10 min 0,000 mm 396 W/m 9,8 C 11,4 C 0,0 km/h (0 Bft) 97 %
25.09.2017 10:20 12,0 C 11,4 C 12,0 C 90 % 1019,7 hPa 0,0 l/m 0,0 km/h (0 Bft) N 0 10 min 0,000 mm 420 W/m 10,4 C 12,0 C 0,0 km/h (0 Bft) 97 %
25.09.2017 10:30 12,4 C 12,0 C 12,4 C 90 % 1019,7 hPa 0,0 l/m 0,0 km/h (0 Bft) N 0 10 min 0,000 mm 448 W/m 10,8 C 12,4 C 0,0 km/h (0 Bft) 98 %
25.09.2017 10:40 12,8 C 12,4 C 12,8 C 90 % 1019,7 hPa 0,0 l/m 0,0 km/h (0 Bft) NW 315 10 min 0,000 mm 469 W/m 11,2 C 12,8 C 1,6 km/h (1 Bft) 97 %
25.09.2017 10:50 13,1 C 12,8 C 13,1 C 89 % 1019,5 hPa 0,0 l/m 0,0 km/h (0 Bft) NW 315 10 min 0,000 mm 499 W/m 11,3 C 13,1 C 6,4 km/h (2 Bft) 98 %
25.09.2017 11:00 13,4 C 13,1 C 13,4 C 89 % 1019,6 hPa 0,0 l/m 1,6 km/h (1 Bft) NO 45 10 min 0,229 mm 517 W/m 11,6 C 13,4 C 6,4 km/h (2 Bft) 98 %
25.09.2017 11:10 13,8 C 13,4 C 13,8 C 88 % 1019,6 hPa 0,0 l/m 0,0 km/h (0 Bft) N 360 10 min 0,000 mm 538 W/m 11,8 C 13,8 C 9,7 km/h (2 Bft) 98 %
25.09.2017 11:20 14,3 C 13,8 C 14,3 C 88 % 1019,6 hPa 0,0 l/m 1,6 km/h (1 Bft) N-NO 22 10 min 0,000 mm 550 W/m 12,3 C 14,3 C 9,7 km/h (2 Bft) 97 %
25.09.2017 11:30 14,8 C 14,3 C 14,8 C 86 % 1019,5 hPa 0,0 l/m 1,6 km/h (1 Bft) O 90 10 min 0,000 mm 563 W/m 12,5 C 14,8 C 6,4 km/h (2 Bft) 96 %
25.09.2017 11:40 15,1 C 14,8 C 15,1 C 83 % 1019,5 hPa 0,0 l/m 0,0 km/h (0 Bft) O-SO 112 10 min 0,000 mm 578 W/m 12,2 C 15,1 C 3,2 km/h (1 Bft) 98 %
25.09.2017 11:50 15,6 C 15,1 C 15,6 C 82 % 1019,4 hPa 0,0 l/m 0,0 km/h (0 Bft) SO 135 10 min 0,000 mm 594 W/m 12,5 C 15,6 C 6,4 km/h (2 Bft) 97 %
25.09.2017 12:10 16,2 C 15,1 C 16,2 C 80 % 1019,0 hPa 0,0 l/m 2,1 km/h (1 Bft) NW 318 20 min 0,279 mm 615 W/m 12,7 C 16,2 C 8,0 km/h (2 Bft) 99 %
25.09.2017 12:20 16,4 C 16,2 C 16,4 C 78 % 1019,0 hPa 0,0 l/m 2,7 km/h (1 Bft) N 360 10 min 0,000 mm 624 W/m 12,6 C 16,4 C 8,0 km/h (2 Bft) 100 %
25.09.2017 12:30 16,8 C 16,4 C 16,8 C 77 % 1018,9 hPa 0,0 l/m 1,2 km/h (1 Bft) O-NO 59 10 min 0,000 mm 633 W/m 12,7 C 16,8 C 4,8 km/h (1 Bft) 100 %
25.09.2017 12:40 17,2 C 16,8 C 17,2 C 75 % 1019,0 hPa 0,0 l/m 3,5 km/h (1 Bft) S 184 10 min 0,000 mm 640 W/m 12,7 C 17,2 C 9,7 km/h (2 Bft) 100 %
25.09.2017 12:50 17,5 C 17,2 C 17,5 C 73 % 1019,0 hPa 0,0 l/m 2,8 km/h (1 Bft) N 355 10 min 0,000 mm 638 W/m 12,6 C 17,5 C 9,7 km/h (2 Bft) 100 %
25.09.2017 13:00 17,7 C 17,5 C 17,7 C 71 % 1019,0 hPa 0,0 l/m 1,3 km/h (1 Bft) O-NO 78 10 min 0,355 mm 642 W/m 12,4 C 17,7 C 6,4 km/h (2 Bft) 100 %
25.09.2017 13:10 17,9 C 17,7 C 17,9 C 74 % 1018,9 hPa 0,0 l/m 1,0 km/h (0 Bft) N-NO 17 10 min 0,000 mm 659 W/m 13,2 C 17,9 C 4,8 km/h (1 Bft) 98 %
25.09.2017 13:20 18,1 C 17,9 C 18,1 C 73 % 1018,8 hPa 0,0 l/m 2,4 km/h (1 Bft) NW 326 10 min 0,000 mm 684 W/m 13,2 C 18,1 C 8,0 km/h (2 Bft) 99 %
25.09.2017 13:30 18,1 C 18,1 C 18,1 C 71 % 1018,7 hPa 0,0 l/m 1,8 km/h (1 Bft) N-NO 22 10 min 0,000 mm 169 W/m 12,8 C 18,1 C 4,8 km/h (1 Bft) 100 %
25.09.2017 13:40 17,4 C 17,4 C 18,1 C 70 % 1018,7 hPa 0,0 l/m 0,5 km/h (0 Bft) N-NO 22 10 min 0,000 mm 174 W/m 11,9 C 17,4 C 3,2 km/h (1 Bft) 100 %
25.09.2017 13:50 17,0 C 17,0 C 17,4 C 73 % 1018,7 hPa 0,0 l/m 0,2 km/h (0 Bft) N-NO 28 10 min 0,000 mm 705 W/m 12,1 C 17,0 C 3,2 km/h (1 Bft) 99 %
25.09.2017 14:00 17,3 C 17,0 C 17,3 C 74 % 1018,6 hPa 0,0 l/m 0,4 km/h (0 Bft) N-NO 24 10 min 0,254 mm 193 W/m 12,6 C 17,3 C 4,8 km/h (1 Bft) 100 %
25.09.2017 14:10 17,7 C 17,3 C 17,7 C 72 % 1018,5 hPa 0,0 l/m 1,4 km/h (1 Bft) N 355 10 min 0,000 mm 654 W/m 12,6 C 17,7 C 6,4 km/h (2 Bft) 100 %
25.09.2017 14:20 17,7 C 17,7 C 17,8 C 70 % 1018,5 hPa 0,0 l/m 1,2 km/h (1 Bft) N-NO 22 10 min 0,000 mm 153 W/m 12,2 C 17,7 C 6,4 km/h (2 Bft) 99 %
25.09.2017 14:30 17,6 C 17,6 C 17,7 C 71 % 1018,5 hPa 0,0 l/m 0,3 km/h (0 Bft) N 5 10 min 0,000 mm 181 W/m 12,3 C 17,6 C 6,4 km/h (2 Bft) 100 %
25.09.2017 14:40 17,7 C 17,5 C 17,7 C 73 % 1018,6 hPa 0,0 l/m 0,8 km/h (0 Bft) O-SO 102 10 min 0,000 mm 649 W/m 12,8 C 17,7 C 4,8 km/h (1 Bft) 100 %
25.09.2017 14:50 18,1 C 17,7 C 18,1 C 69 % 1018,6 hPa 0,0 l/m 1,0 km/h (0 Bft) O 89 10 min 0,000 mm 255 W/m 12,3 C 18,1 C 3,2 km/h (1 Bft) 100 %
25.09.2017 15:00 18,3 C 18,1 C 18,3 C 67 % 1018,6 hPa 0,0 l/m 1,6 km/h (1 Bft) NO 45 10 min 0,229 mm 381 W/m 12,1 C 18,3 C 9,7 km/h (2 Bft) 99 %
25.09.2017 15:10 18,6 C 18,3 C 18,6 C 68 % 1018,6 hPa 0,0 l/m 1,3 km/h (1 Bft) O 98 0 min 0,000 mm 144 W/m 12,6 C 18,6 C 8,0 km/h (2 Bft) 100 %
25.09.2017 15:20 18,6 C 18,5 C 18,6 C 67 % 1018,5 hPa 0,0 l/m 1,5 km/h (1 Bft) N 5 10 min 0,000 mm 526 W/m 12,3 C 18,6 C 6,4 km/h (2 Bft) 100 %
25.09.2017 15:30 18,7 C 18,6 C 18,7 C 66 % 1018,4 hPa 0,0 l/m 0,9 km/h (0 Bft) NO 39 10 min 0,000 mm 506 W/m 12,2 C 18,7 C 4,8 km/h (1 Bft) 100 %
25.09.2017 15:40 18,5 C 18,5 C 18,7 C 66 % 1018,3 hPa 0,0 l/m 1,7 km/h (1 Bft) O-SO 122 10 min 0,000 mm 425 W/m 12,0 C 18,5 C 6,4 km/h (2 Bft) 100 %
25.09.2017 15:50 18,6 C 18,5 C 18,6 C 70 % 1018,3 hPa 0,0 l/m 0,5 km/h (0 Bft) SO 136 10 min 0,000 mm 515 W/m 13,0 C 18,6 C 4,8 km/h (1 Bft) 99 %
25.09.2017 16:00 18,5 C 18,5 C 18,7 C 67 % 1018,3 hPa 0,0 l/m 1,1 km/h (1 Bft) O-SO 103 0 min 0,229 mm 114 W/m 12,3 C 18,5 C 14,5 km/h (3 Bft) 100 %
25.09.2017 16:10 18,2 C 18,2 C 18,6 C 68 % 1018,3 hPa 0,0 l/m 0,3 km/h (0 Bft) N-NO 30 0 min 0,000 mm 90 W/m 12,2 C 18,2 C 4,8 km/h (1 Bft) 100 %
25.09.2017 16:20 18,0 C 18,0 C 18,2 C 70 % 1018,2 hPa 0,0 l/m 0,0 km/h (0 Bft) NO 56 0 min 0,000 mm 76 W/m 12,4 C 18,0 C 0,0 km/h (0 Bft) 100 %
25.09.2017 16:30 18,2 C 18,0 C 18,2 C 68 % 1018,1 hPa 0,0 l/m 0,3 km/h (0 Bft) SO 129 0 min 0,000 mm 70 W/m 12,2 C 18,2 C 4,8 km/h (1 Bft) 100 %
25.09.2017 16:40 18,3 C 18,2 C 18,3 C 69 % 1018,1 hPa 0,0 l/m 0,0 km/h (0 Bft) SO 138 0 min 0,000 mm 74 W/m 12,5 C 18,3 C 1,6 km/h (1 Bft) 100 %
25.09.2017 16:50 18,3 C 18,3 C 18,3 C 68 % 1018,0 hPa 0,0 l/m 0,0 km/h (0 Bft) SO 131 0 min 0,000 mm 88 W/m 12,3 C 18,3 C 1,6 km/h (1 Bft) 100 %
25.09.2017 17:00 18,3 C 18,2 C 18,3 C 67 % 1018,3 hPa 0,0 l/m 0,4 km/h (0 Bft) O-SO 116 0 min 0,050 mm 65 W/m 12,1 C 18,3 C 8,0 km/h (2 Bft) 100 %
25.09.2017 17:10 18,1 C 18,1 C 18,3 C 68 % 1018,3 hPa 0,0 l/m 0,0 km/h (0 Bft) O-SO 120 0 min 0,000 mm 49 W/m 12,1 C 18,1 C 1,6 km/h (1 Bft) 100 %
25.09.2017 17:20 17,9 C 17,9 C 18,1 C 70 % 1018,2 hPa 0,0 l/m 0,0 km/h (0 Bft) O-SO 120 0 min 0,000 mm 58 W/m 12,3 C 17,9 C 1,6 km/h (1 Bft) 100 %
25.09.2017 17:30 17,7 C 17,7 C 17,9 C 69 % 1018,3 hPa 0,0 l/m 0,0 km/h (0 Bft) O-SO 117 0 min 0,000 mm 60 W/m 11,9 C 17,7 C 0,0 km/h (0 Bft) 100 %
25.09.2017 17:40 17,7 C 17,6 C 17,7 C 69 % 1018,2 hPa 0,0 l/m 0,0 km/h (0 Bft) O-SO 117 0 min 0,000 mm 54 W/m 11,9 C 17,7 C 1,6 km/h (1 Bft) 100 %
25.09.2017 17:50 17,4 C 17,4 C 17,7 C 70 % 1018,2 hPa 0,0 l/m 0,0 km/h (0 Bft) O-SO 108 0 min 0,000 mm 49 W/m 11,9 C 17,4 C 1,6 km/h (1 Bft) 100 %
25.09.2017 18:00 17,3 C 17,3 C 17,5 C 70 % 1018,2 hPa 0,0 l/m 0,0 km/h (0 Bft) O 100 0 min 0,026 mm 46 W/m 11,8 C 17,3 C 1,6 km/h (1 Bft) 100 %
25.09.2017 18:10 17,1 C 17,1 C 17,3 C 72 % 1018,3 hPa 0,0 l/m 0,0 km/h (0 Bft) O 90 0 min 0,000 mm 42 W/m 12,0 C 17,1 C 0,0 km/h (0 Bft) 100 %
25.09.2017 18:20 16,9 C 16,9 C 17,2 C 72 % 1018,3 hPa 0,0 l/m 0,2 km/h (0 Bft) O 92 0 min 0,000 mm 39 W/m 11,8 C 16,9 C 4,8 km/h (1 Bft) 100 %
25.09.2017 18:30 16,6 C 16,6 C 16,9 C 73 % 1018,4 hPa 0,0 l/m 0,5 km/h (0 Bft) O-NO 65 0 min 0,000 mm 30 W/m 11,7 C 16,6 C 6,4 km/h (2 Bft) 100 %
25.09.2017 18:40 16,3 C 16,3 C 16,6 C 73 % 1018,4 hPa 0,0 l/m 0,0 km/h (0 Bft) O-NO 65 0 min 0,000 mm 23 W/m 11,4 C 16,3 C 0,0 km/h (0 Bft) 100 %
25.09.2017 18:50 16,0 C 16,0 C 16,3 C 74 % 1018,5 hPa 0,0 l/m 0,0 km/h (0 Bft) O-NO 64 0 min 0,000 mm 16 W/m 11,4 C 16,0 C 1,6 km/h (1 Bft) 100 %
25.09.2017 19:00 15,7 C 15,7 C 16,0 C 75 % 1018,5 hPa 0,0 l/m 0,0 km/h (0 Bft) O-NO 64 0 min 0,025 mm 11 W/m 11,3 C 15,7 C 0,0 km/h (0 Bft) 100 %
25.09.2017 19:10 15,3 C 15,3 C 15,7 C 75 % 1018,5 hPa 0,0 l/m 0,0 km/h (0 Bft) O-NO 64 0 min 0,000 mm 0 W/m 10,9 C 15,3 C 0,0 km/h (0 Bft) 100 %
25.09.2017 19:20 15,1 C 15,1 C 15,3 C 77 % 1018,7 hPa 0,0 l/m 0,0 km/h (0 Bft) O-NO 64 0 min 0,000 mm 0 W/m 11,1 C 15,1 C 0,0 km/h (0 Bft) 100 %
25.09.2017 19:30 14,6 C 14,6 C 15,1 C 79 % 1018,8 hPa 0,0 l/m 0,0 km/h (0 Bft) O-NO 64 0 min 0,000 mm 0 W/m 11,0 C 14,6 C 0,0 km/h (0 Bft) 100 %
25.09.2017 19:40 14,2 C 14,2 C 14,6 C 81 % 1018,8 hPa 0,0 l/m 0,0 km/h (0 Bft) O-NO 64 0 min 0,000 mm 0 W/m 11,0 C 14,2 C 0,0 km/h (0 Bft) 99 %
25.09.2017 19:50 13,9 C 13,9 C 14,2 C 81 % 1018,9 hPa 0,0 l/m 0,0 km/h (0 Bft) O-NO 64 0 min 0,000 mm 0 W/m 10,7 C 13,9 C 0,0 km/h (0 Bft) 100 %
25.09.2017 20:00 13,7 C 13,7 C 13,9 C 82 % 1019,0 hPa 0,0 l/m 0,0 km/h (0 Bft) O-NO 64 0 min 0,000 mm 0 W/m 10,7 C 13,7 C 0,0 km/h (0 Bft) 100 %
25.09.2017 20:10 13,6 C 13,6 C 13,7 C 83 % 1019,1 hPa 0,0 l/m 0,0 km/h (0 Bft) O-NO 64 0 min 0,000 mm 0 W/m 10,8 C 13,6 C 0,0 km/h (0 Bft) 99 %
25.09.2017 20:20 13,5 C 13,5 C 13,6 C 84 % 1019,2 hPa 0,0 l/m 0,0 km/h (0 Bft) O-NO 64 0 min 0,000 mm 0 W/m 10,8 C 13,5 C 0,0 km/h (0 Bft) 99 %
25.09.2017 20:30 13,4 C 13,4 C 13,5 C 84 % 1019,2 hPa 0,0 l/m 0,0 km/h (0 Bft) O-NO 64 0 min 0,000 mm 0 W/m 10,8 C 13,4 C 0,0 km/h (0 Bft) 99 %
25.09.2017 20:40 13,4 C 13,4 C 13,4 C 85 % 1019,2 hPa 0,0 l/m 0,0 km/h (0 Bft) O-NO 64 0 min 0,000 mm 0 W/m 10,9 C 13,4 C 0,0 km/h (0 Bft) 99 %
25.09.2017 20:50 13,3 C 13,3 C 13,4 C 86 % 1019,3 hPa 0,0 l/m 0,0 km/h (0 Bft) O-NO 64 0 min 0,000 mm 0 W/m 11,0 C 13,3 C 0,0 km/h (0 Bft) 100 %
25.09.2017 21:00 13,2 C 13,2 C 13,3 C 86 % 1019,3 hPa 0,0 l/m 0,0 km/h (0 Bft) O-NO 64 0 min 0,000 mm 0 W/m 10,9 C 13,2 C 0,0 km/h (0 Bft) 100 %
25.09.2017 21:10 13,1 C 13,1 C 13,2 C 87 % 1019,2 hPa 0,0 l/m 0,0 km/h (0 Bft) N 0 0 min 0,000 mm 0 W/m 11,0 C 13,1 C 0,0 km/h (0 Bft) 98 %
25.09.2017 21:20 13,0 C 13,0 C 13,1 C 86 % 1019,3 hPa 0,0 l/m 0,0 km/h (0 Bft) N 0 0 min 0,000 mm 0 W/m 10,7 C 13,0 C 0,0 km/h (0 Bft) 98 %
25.09.2017 21:30 12,8 C 12,8 C 13,0 C 87 % 1019,3 hPa 0,0 l/m 0,0 km/h (0 Bft) N 0 0 min 0,000 mm 0 W/m 10,7 C 12,8 C 0,0 km/h (0 Bft) 98 %
25.09.2017 21:40 12,7 C 12,7 C 12,8 C 87 % 1019,3 hPa 0,0 l/m 0,0 km/h (0 Bft) N 0 0 min 0,000 mm 0 W/m 10,6 C 12,7 C 0,0 km/h (0 Bft) 98 %
25.09.2017 21:50 12,6 C 12,6 C 12,7 C 87 % 1019,2 hPa 0,0 l/m 0,0 km/h (0 Bft) N 0 0 min 0,000 mm 0 W/m 10,5 C 12,6 C 0,0 km/h (0 Bft) 98 %
25.09.2017 22:00 12,5 C 12,5 C 12,6 C 87 % 1019,3 hPa 0,0 l/m 0,0 km/h (0 Bft) N 0 0 min 0,000 mm 0 W/m 10,4 C 12,5 C 0,0 km/h (0 Bft) 88 %
25.09.2017 22:10 12,4 C 12,4 C 12,5 C 87 % 1019,2 hPa 0,0 l/m 0,0 km/h (0 Bft) N 0 0 min 0,000 mm 0 W/m 10,3 C 12,4 C 0,0 km/h (0 Bft) 98 %
25.09.2017 22:20 12,3 C 12,3 C 12,4 C 88 % 1019,3 hPa 0,0 l/m 0,0 km/h (0 Bft) N 0 0 min 0,000 mm 0 W/m 10,4 C 12,3 C 0,0 km/h (0 Bft) 98 %
25.09.2017 22:30 12,2 C 12,2 C 12,3 C 88 % 1019,2 hPa 0,0 l/m 0,0 km/h (0 Bft) N 0 0 min 0,000 mm 0 W/m 10,3 C 12,2 C 0,0 km/h (0 Bft) 97 %
25.09.2017 22:40 12,1 C 12,0 C 12,2 C 88 % 1019,2 hPa 0,0 l/m 0,0 km/h (0 Bft) N 0 0 min 0,000 mm 0 W/m 10,2 C 12,1 C 0,0 km/h (0 Bft) 97 %
25.09.2017 22:50 11,9 C 11,9 C 12,1 C 88 % 1019,2 hPa 0,0 l/m 0,0 km/h (0 Bft) N 0 0 min 0,000 mm 0 W/m 10,0 C 11,9 C 0,0 km/h (0 Bft) 98 %
25.09.2017 23:00 11,8 C 11,8 C 11,9 C 88 % 1019,3 hPa 0,0 l/m 0,0 km/h (0 Bft) N 0 0 min 0,000 mm 0 W/m 9,9 C 11,8 C 0,0 km/h (0 Bft) 98 %
25.09.2017 23:10 11,7 C 11,7 C 11,8 C 88 % 1019,3 hPa 0,0 l/m 0,0 km/h (0 Bft) N 0 0 min 0,000 mm 0 W/m 9,8 C 11,7 C 0,0 km/h (0 Bft) 98 %
25.09.2017 23:20 11,6 C 11,6 C 11,7 C 89 % 1019,4 hPa 0,0 l/m 0,0 km/h (0 Bft) N 0 0 min 0,000 mm 0 W/m 9,8 C 11,6 C 0,0 km/h (0 Bft) 97 %
25.09.2017 23:30 11,5 C 11,5 C 11,6 C 89 % 1019,3 hPa 0,0 l/m 0,0 km/h (0 Bft) N 0 0 min 0,000 mm 0 W/m 9,8 C 11,5 C 0,0 km/h (0 Bft) 99 %
25.09.2017 23:40 11,4 C 11,4 C 11,5 C 89 % 1019,4 hPa 0,0 l/m 0,0 km/h (0 Bft) N 0 0 min 0,000 mm 0 W/m 9,7 C 11,4 C 0,0 km/h (0 Bft) 100 %
25.09.2017 23:50 11,3 C 11,3 C 11,4 C 89 % 1019,3 hPa 0,0 l/m 0,0 km/h (0 Bft) N 0 0 min 0,000 mm 0 W/m 9,6 C 11,3 C 0,0 km/h (0 Bft) 99 %
_ Min-Zeit 07:10 07:10 07:20 15:30 16:50 - 00:00 - - - - - 07:10 07:10 00:00 22:00
Minimum _ 6,7 C 6,7 C 6,7 C 66 % 1018,0 hPa - 0,0 km/h (0 Bft) - - - - - 5,2 C 6,7 C 0,0 km/h (0 Bft) 88 %
_ Max-Zeit 15:30 15:30 15:30 09:40 00:00 00:00 12:40 - - 12:10 13:00 13:50 13:10 15:30 16:00 00:00
Maximum _ 18,7 C 18,6 C 18,7 C 94 % 1021,0 hPa 0,0 l/m 3,5 km/h
S (1 Bft)
- - 20 min 0,355 mm 705 W/m 13,2 C 18,7 C 14,5 km/h
SO (3 Bft)
100 %
Durchschnitt _ 12,3 C 12,2 C 12,4 C 83 % 1019,4 hPa #0,0 l/m 0,5 km/h (0 Bft) N - #7:00 h #1,854 mm 284 W/m 9,5 C 12,3 C 2,5 km/h (1 Bft) 99 %
PRIVATE WETTERSTATION BILLIGHEIM-ALLFELD - www.neckar-odenwald-wetter.de - Holger Sonntag